sensor_id;sensor_type;location;lat;lon;timestamp;pressure;altitude;pressure_sealevel;temperature;humidity
68075;BME280;54864;52.002;5.468;2023-03-26T00:00:05;100577.00;;;10.88;76.51
68075;BME280;54864;52.002;5.468;2023-03-26T00:01:14;100568.94;;;10.91;76.26
68075;BME280;54864;52.002;5.468;2023-03-26T00:02:16;100567.69;;;10.98;76.29
68075;BME280;54864;52.002;5.468;2023-03-26T00:03:17;100573.38;;;10.90;76.27
68075;BME280;54864;52.002;5.468;2023-03-26T00:04:19;100570.81;;;10.89;76.73
68075;BME280;54864;52.002;5.468;2023-03-26T00:05:21;100569.19;;;10.86;76.46
68075;BME280;54864;52.002;5.468;2023-03-26T00:06:25;100574.06;;;10.76;76.87
68075;BME280;54864;52.002;5.468;2023-03-26T00:07:27;100570.25;;;10.82;76.89
68075;BME280;54864;52.002;5.468;2023-03-26T00:08:29;100563.34;;;10.79;76.86
68075;BME280;54864;52.002;5.468;2023-03-26T00:09:30;100568.63;;;10.79;77.01
68075;BME280;54864;52.002;5.468;2023-03-26T00:10:31;100574.84;;;10.78;77.08
68075;BME280;54864;52.002;5.468;2023-03-26T00:11:33;100572.44;;;10.74;77.24
68075;BME280;54864;52.002;5.468;2023-03-26T00:12:35;100576.78;;;10.75;77.37
68075;BME280;54864;52.002;5.468;2023-03-26T00:13:36;100566.31;;;10.73;77.59
68075;BME280;54864;52.002;5.468;2023-03-26T00:14:38;100573.97;;;10.78;77.59
68075;BME280;54864;52.002;5.468;2023-03-26T00:15:40;100569.41;;;10.82;77.08
68075;BME280;54864;52.002;5.468;2023-03-26T00:16:41;100566.31;;;10.73;77.89
68075;BME280;54864;52.002;5.468;2023-03-26T00:17:43;100566.31;;;10.73;78.26
68075;BME280;54864;52.002;5.468;2023-03-26T00:18:46;100559.25;;;10.74;77.94
68075;BME280;54864;52.002;5.468;2023-03-26T00:19:48;100551.97;;;10.79;78.31
68075;BME280;54864;52.002;5.468;2023-03-26T00:20:49;100561.25;;;10.86;77.96
68075;BME280;54864;52.002;5.468;2023-03-26T00:21:50;100562.13;;;10.87;77.96
68075;BME280;54864;52.002;5.468;2023-03-26T00:22:54;100556.00;;;10.86;78.19
68075;BME280;54864;52.002;5.468;2023-03-26T00:23:56;100559.63;;;10.84;78.36
68075;BME280;54864;52.002;5.468;2023-03-26T00:24:59;100559.78;;;10.80;78.64
68075;BME280;54864;52.002;5.468;2023-03-26T00:26:01;100555.69;;;10.75;79.01
68075;BME280;54864;52.002;5.468;2023-03-26T00:27:03;100556.47;;;10.77;78.95
68075;BME280;54864;52.002;5.468;2023-03-26T00:28:04;100545.75;;;10.63;79.84
68075;BME280;54864;52.002;5.468;2023-03-26T00:29:07;100554.97;;;10.71;79.58
68075;BME280;54864;52.002;5.468;2023-03-26T00:30:09;100554.44;;;10.65;80.17
68075;BME280;54864;52.002;5.468;2023-03-26T00:31:13;100549.94;;;10.67;80.18
68075;BME280;54864;52.002;5.468;2023-03-26T00:32:16;100547.31;;;10.67;80.46
68075;BME280;54864;52.002;5.468;2023-03-26T00:33:18;100538.31;;;10.71;80.06
68075;BME280;54864;52.002;5.468;2023-03-26T00:34:19;100548.16;;;10.85;79.89
68075;BME280;54864;52.002;5.468;2023-03-26T00:35:22;100542.72;;;10.88;79.46
68075;BME280;54864;52.002;5.468;2023-03-26T00:36:24;100537.44;;;10.88;79.62
68075;BME280;54864;52.002;5.468;2023-03-26T00:37:26;100536.44;;;10.90;79.68
68075;BME280;54864;52.002;5.468;2023-03-26T00:38:28;100548.22;;;10.83;80.03
68075;BME280;54864;52.002;5.468;2023-03-26T00:39:30;100547.31;;;10.84;80.24
68075;BME280;54864;52.002;5.468;2023-03-26T00:40:32;100546.22;;;10.88;80.39
68075;BME280;54864;52.002;5.468;2023-03-26T00:41:36;100534.50;;;10.94;80.17
68075;BME280;54864;52.002;5.468;2023-03-26T00:42:42;100531.84;;;10.94;80.13
68075;BME280;54864;52.002;5.468;2023-03-26T00:43:43;100530.16;;;10.93;80.30
68075;BME280;54864;52.002;5.468;2023-03-26T00:44:46;100534.66;;;10.91;80.25
68075;BME280;54864;52.002;5.468;2023-03-26T00:45:47;100534.50;;;10.94;80.42
68075;BME280;54864;52.002;5.468;2023-03-26T00:46:49;100532.47;;;10.99;80.00
68075;BME280;54864;52.002;5.468;2023-03-26T00:47:50;100532.31;;;11.02;80.05
68075;BME280;54864;52.002;5.468;2023-03-26T00:48:52;100526.97;;;11.03;80.00
68075;BME280;54864;52.002;5.468;2023-03-26T00:49:53;100525.91;;;11.07;79.67
68075;BME280;54864;52.002;5.468;2023-03-26T00:50:55;100525.34;;;11.01;79.91
68075;BME280;54864;52.002;5.468;2023-03-26T00:51:56;100523.56;;;11.01;80.09
68075;BME280;54864;52.002;5.468;2023-03-26T00:52:58;100520.94;;;10.84;80.54
68075;BME280;54864;52.002;5.468;2023-03-26T00:54:00;100527.84;;;10.87;80.72
68075;BME280;54864;52.002;5.468;2023-03-26T00:55:02;100521.72;;;10.86;81.19
68075;BME280;54864;52.002;5.468;2023-03-26T00:56:04;100522.25;;;10.93;80.85
68075;BME280;54864;52.002;5.468;2023-03-26T00:57:06;100521.84;;;11.00;80.60
68075;BME280;54864;52.002;5.468;2023-03-26T00:58:10;100520.84;;;11.03;80.37
68075;BME280;54864;52.002;5.468;2023-03-26T00:59:12;100522.50;;;11.05;80.17
68075;BME280;54864;52.002;5.468;2023-03-26T01:00:17;100518.75;;;11.09;79.70
68075;BME280;54864;52.002;5.468;2023-03-26T01:01:22;100513.41;;;11.11;79.57
68075;BME280;54864;52.002;5.468;2023-03-26T01:02:26;100511.53;;;11.13;79.63
68075;BME280;54864;52.002;5.468;2023-03-26T01:03:31;100517.22;;;11.05;79.87
68075;BME280;54864;52.002;5.468;2023-03-26T01:04:33;100515.25;;;11.09;79.59
68075;BME280;54864;52.002;5.468;2023-03-26T01:05:43;100510.16;;;11.06;79.94
68075;BME280;54864;52.002;5.468;2023-03-26T01:06:45;100515.88;;;11.14;79.81
68075;BME280;54864;52.002;5.468;2023-03-26T01:07:46;100513.25;;;11.14;79.89
68075;BME280;54864;52.002;5.468;2023-03-26T01:08:49;100515.88;;;11.14;79.60
68075;BME280;54864;52.002;5.468;2023-03-26T01:09:55;100508.38;;;11.06;79.85
68075;BME280;54864;52.002;5.468;2023-03-26T01:10:58;100501.84;;;11.14;79.60
68075;BME280;54864;52.002;5.468;2023-03-26T01:12:06;100506.66;;;11.05;80.04
68075;BME280;54864;52.002;5.468;2023-03-26T01:13:08;100503.09;;;11.06;80.17
68075;BME280;54864;52.002;5.468;2023-03-26T01:14:13;100502.06;;;11.09;79.84
68075;BME280;54864;52.002;5.468;2023-03-26T01:15:15;100496.47;;;11.15;79.72
68075;BME280;54864;52.002;5.468;2023-03-26T01:16:21;100501.44;;;11.04;80.16
68075;BME280;54864;52.002;5.468;2023-03-26T01:17:25;100496.81;;;11.09;80.21
68075;BME280;54864;52.002;5.468;2023-03-26T01:18:33;100498.34;;;11.13;79.79
68075;BME280;54864;52.002;5.468;2023-03-26T01:19:45;100490.50;;;11.11;79.83
68075;BME280;54864;52.002;5.468;2023-03-26T01:20:49;100490.75;;;11.07;79.98
68075;BME280;54864;52.002;5.468;2023-03-26T01:21:50;100489.50;;;11.14;79.83
68075;BME280;54864;52.002;5.468;2023-03-26T01:22:56;100491.28;;;11.14;79.76
68075;BME280;54864;52.002;5.468;2023-03-26T01:24:02;100485.22;;;11.11;79.78
68075;BME280;54864;52.002;5.468;2023-03-26T01:25:05;100483.53;;;11.10;79.49
68075;BME280;54864;52.002;5.468;2023-03-26T01:26:12;100485.41;;;11.08;79.97
68075;BME280;54864;52.002;5.468;2023-03-26T01:27:30;100480.88;;;11.10;79.78
68075;BME280;54864;52.002;5.468;2023-03-26T01:28:35;100474.38;;;11.00;79.94
68075;BME280;54864;52.002;5.468;2023-03-26T01:29:43;100468.00;;;11.04;79.99
68075;BME280;54864;52.002;5.468;2023-03-26T01:30:49;100473.44;;;11.01;80.04
68075;BME280;54864;52.002;5.468;2023-03-26T01:32:04;100472.22;;;11.08;79.88
68075;BME280;54864;52.002;5.468;2023-03-26T01:33:14;100463.03;;;10.98;79.88
68075;BME280;54864;52.002;5.468;2023-03-26T01:34:28;100466.28;;;11.03;79.50
68075;BME280;54864;52.002;5.468;2023-03-26T01:35:40;100463.53;;;11.06;79.13
68075;BME280;54864;52.002;5.468;2023-03-26T01:36:48;100465.22;;;11.07;79.08
68075;BME280;54864;52.002;5.468;2023-03-26T01:38:00;100461.19;;;11.00;79.39
68075;BME280;54864;52.002;5.468;2023-03-26T01:39:15;100463.53;;;10.89;79.88
68075;BME280;54864;52.002;5.468;2023-03-26T01:40:23;100468.34;;;10.81;80.55
68075;BME280;54864;52.002;5.468;2023-03-26T01:41:29;100464.69;;;10.84;80.54
68075;BME280;54864;52.002;5.468;2023-03-26T01:42:36;100461.63;;;10.75;80.83
68075;BME280;54864;52.002;5.468;2023-03-26T01:43:45;100464.66;;;10.68;81.67
68075;BME280;54864;52.002;5.468;2023-03-26T01:44:54;100460.69;;;10.76;81.53
68075;BME280;54864;52.002;5.468;2023-03-26T01:45:59;100466.19;;;10.72;81.67
68075;BME280;54864;52.002;5.468;2023-03-26T01:47:02;100461.16;;;10.67;82.12
68075;BME280;54864;52.002;5.468;2023-03-26T01:48:04;100454.31;;;10.80;81.63
68075;BME280;54864;52.002;5.468;2023-03-26T01:49:06;100450.75;;;10.82;81.82
68075;BME280;54864;52.002;5.468;2023-03-26T01:50:13;100454.91;;;10.86;81.63
68075;BME280;54864;52.002;5.468;2023-03-26T01:51:25;100455.63;;;10.89;81.33
68075;BME280;54864;52.002;5.468;2023-03-26T01:52:26;100444.28;;;10.87;81.41
68075;BME280;54864;52.002;5.468;2023-03-26T01:53:28;100443.19;;;10.91;81.28
68075;BME280;54864;52.002;5.468;2023-03-26T01:54:30;100445.50;;;10.97;81.22
68075;BME280;54864;52.002;5.468;2023-03-26T01:55:44;100443.19;;;10.91;81.26
68075;BME280;54864;52.002;5.468;2023-03-26T01:57:00;100440.47;;;10.93;81.27
68075;BME280;54864;52.002;5.468;2023-03-26T01:58:11;100437.06;;;10.91;81.44
68075;BME280;54864;52.002;5.468;2023-03-26T01:59:22;100431.78;;;10.91;81.65
68075;BME280;54864;52.002;5.468;2023-03-26T02:00:28;100435.97;;;10.95;81.33
68075;BME280;54864;52.002;5.468;2023-03-26T02:01:35;100431.19;;;10.86;81.63
68075;BME280;54864;52.002;5.468;2023-03-26T02:02:54;100427.72;;;10.68;82.26
68075;BME280;54864;52.002;5.468;2023-03-26T02:04:03;100428.19;;;10.76;82.67
68075;BME280;54864;52.002;5.468;2023-03-26T02:05:11;100427.25;;;10.77;82.73
68075;BME280;54864;52.002;5.468;2023-03-26T02:06:18;100429.56;;;10.83;82.63
68075;BME280;54864;52.002;5.468;2023-03-26T02:07:26;100427.16;;;10.78;82.18
68075;BME280;54864;52.002;5.468;2023-03-26T02:08:36;100415.41;;;10.68;83.07
68075;BME280;54864;52.002;5.468;2023-03-26T02:09:44;100424.63;;;10.77;82.85
68075;BME280;54864;52.002;5.468;2023-03-26T02:10:50;100420.28;;;10.76;82.44
68075;BME280;54864;52.002;5.468;2023-03-26T02:11:53;100421.38;;;10.72;82.61
68075;BME280;54864;52.002;5.468;2023-03-26T02:12:55;100415.78;;;10.78;82.44
68075;BME280;54864;52.002;5.468;2023-03-26T02:13:58;100417.22;;;10.84;81.96
68075;BME280;54864;52.002;5.468;2023-03-26T02:15:00;100414.91;;;10.77;82.03
68075;BME280;54864;52.002;5.468;2023-03-26T02:16:04;100412.19;;;10.79;82.06
68075;BME280;54864;52.002;5.468;2023-03-26T02:17:05;100408.88;;;10.75;82.23
68075;BME280;54864;52.002;5.468;2023-03-26T02:18:09;100415.16;;;10.73;81.91
68075;BME280;54864;52.002;5.468;2023-03-26T02:19:13;100408.34;;;10.69;82.04
68075;BME280;54864;52.002;5.468;2023-03-26T02:20:21;100402.22;;;10.68;81.69
68075;BME280;54864;52.002;5.468;2023-03-26T02:21:23;100406.81;;;10.65;82.12
68075;BME280;54864;52.002;5.468;2023-03-26T02:22:25;100407.00;;;10.77;81.61
68075;BME280;54864;52.002;5.468;2023-03-26T02:23:29;100407.88;;;10.78;81.58
68075;BME280;54864;52.002;5.468;2023-03-26T02:24:34;100409.56;;;10.79;81.33
68075;BME280;54864;52.002;5.468;2023-03-26T02:25:37;100406.31;;;10.74;81.11
68075;BME280;54864;52.002;5.468;2023-03-26T02:26:39;100404.53;;;10.74;80.87
68075;BME280;54864;52.002;5.468;2023-03-26T02:27:40;100402.84;;;10.73;81.02
68075;BME280;54864;52.002;5.468;2023-03-26T02:28:42;100404.97;;;10.83;80.42
68075;BME280;54864;52.002;5.468;2023-03-26T02:29:42;100401.16;;;10.88;80.30
68075;BME280;54864;52.002;5.468;2023-03-26T02:30:47;100404.06;;;10.84;80.26
68075;BME280;54864;52.002;5.468;2023-03-26T02:31:48;100408.31;;;10.86;80.47
68075;BME280;54864;52.002;5.468;2023-03-26T02:32:49;100400.63;;;10.82;80.71
68075;BME280;54864;52.002;5.468;2023-03-26T02:33:52;100404.91;;;10.84;80.55
68075;BME280;54864;52.002;5.468;2023-03-26T02:34:54;100395.44;;;10.80;80.46
68075;BME280;54864;52.002;5.468;2023-03-26T02:35:56;100394.97;;;10.89;80.41
68075;BME280;54864;52.002;5.468;2023-03-26T02:37:01;100395.13;;;10.86;80.25
68075;BME280;54864;52.002;5.468;2023-03-26T02:38:01;100397.44;;;10.92;79.81
68075;BME280;54864;52.002;5.468;2023-03-26T02:39:03;100396.75;;;10.89;80.04
68075;BME280;54864;52.002;5.468;2023-03-26T02:40:05;100397.47;;;10.75;79.99
68075;BME280;54864;52.002;5.468;2023-03-26T02:41:12;100397.81;;;10.69;80.46
68075;BME280;54864;52.002;5.468;2023-03-26T02:42:12;100396.78;;;10.71;80.82
68075;BME280;54864;52.002;5.468;2023-03-26T02:43:17;100402.66;;;10.76;80.69
68075;BME280;54864;52.002;5.468;2023-03-26T02:44:18;100397.63;;;10.72;80.59
68075;BME280;54864;52.002;5.468;2023-03-26T02:45:20;100395.81;;;10.57;80.90
68075;BME280;54864;52.002;5.468;2023-03-26T02:46:21;100394.88;;;10.58;81.22
68075;BME280;54864;52.002;5.468;2023-03-26T02:47:23;100387.66;;;10.61;81.29
68075;BME280;54864;52.002;5.468;2023-03-26T02:48:23;100398.31;;;10.75;81.09
68075;BME280;54864;52.002;5.468;2023-03-26T02:49:25;100396.47;;;10.77;80.77
68075;BME280;54864;52.002;5.468;2023-03-26T02:50:26;100388.97;;;10.70;81.09
68075;BME280;54864;52.002;5.468;2023-03-26T02:51:31;100383.94;;;10.65;81.30
68075;BME280;54864;52.002;5.468;2023-03-26T02:52:34;100389.44;;;10.61;81.70
68075;BME280;54864;52.002;5.468;2023-03-26T02:53:35;100388.50;;;10.62;81.58
68075;BME280;54864;52.002;5.468;2023-03-26T02:54:36;100386.19;;;10.56;81.38
68075;BME280;54864;52.002;5.468;2023-03-26T02:55:38;100389.31;;;10.46;82.19
68075;BME280;54864;52.002;5.468;2023-03-26T02:56:40;100385.41;;;10.36;82.90
68075;BME280;54864;52.002;5.468;2023-03-26T02:57:42;100384.81;;;10.48;82.68
68075;BME280;54864;52.002;5.468;2023-03-26T02:58:42;100387.13;;;10.37;82.97
68075;BME280;54864;52.002;5.468;2023-03-26T02:59:46;100387.66;;;10.27;83.78
68075;BME280;54864;52.002;5.468;2023-03-26T03:00:49;100383.47;;;10.40;83.27
68075;BME280;54864;52.002;5.468;2023-03-26T03:01:54;100386.50;;;10.50;82.95
68075;BME280;54864;52.002;5.468;2023-03-26T03:02:55;100383.72;;;10.53;82.87
68075;BME280;54864;52.002;5.468;2023-03-26T03:03:58;100384.13;;;10.45;82.92
68075;BME280;54864;52.002;5.468;2023-03-26T03:05:00;100381.41;;;10.46;82.84
68075;BME280;54864;52.002;5.468;2023-03-26T03:06:05;100373.88;;;10.56;82.39
68075;BME280;54864;52.002;5.468;2023-03-26T03:07:06;100380.97;;;10.71;81.79
68075;BME280;54864;52.002;5.468;2023-03-26T03:08:08;100382.34;;;10.78;81.43
68075;BME280;54864;52.002;5.468;2023-03-26T03:09:10;100371.72;;;10.80;81.40
68075;BME280;54864;52.002;5.468;2023-03-26T03:10:13;100369.44;;;10.90;80.81
68075;BME280;54864;52.002;5.468;2023-03-26T03:11:16;100368.75;;;10.86;80.38
68075;BME280;54864;52.002;5.468;2023-03-26T03:12:22;100370.09;;;10.77;80.72
68075;BME280;54864;52.002;5.468;2023-03-26T03:13:23;100361.94;;;10.82;80.47
68075;BME280;54864;52.002;5.468;2023-03-26T03:14:24;100366.78;;;10.90;80.31
68075;BME280;54864;52.002;5.468;2023-03-26T03:15:25;100363.06;;;10.94;80.07
68075;BME280;54864;52.002;5.468;2023-03-26T03:16:27;100362.97;;;10.95;79.75
68075;BME280;54864;52.002;5.468;2023-03-26T03:17:28;100366.63;;;10.93;79.72
68075;BME280;54864;52.002;5.468;2023-03-26T03:18:30;100366.38;;;10.97;79.73
68075;BME280;54864;52.002;5.468;2023-03-26T03:19:31;100366.13;;;11.02;79.72
68075;BME280;54864;52.002;5.468;2023-03-26T03:20:32;100365.28;;;11.01;79.73
68075;BME280;54864;52.002;5.468;2023-03-26T03:21:34;100360.47;;;11.09;79.28
68075;BME280;54864;52.002;5.468;2023-03-26T03:22:36;100358.38;;;10.99;79.13
68075;BME280;54864;52.002;5.468;2023-03-26T03:23:37;100360.69;;;11.05;79.45
68075;BME280;54864;52.002;5.468;2023-03-26T03:24:38;100358.22;;;11.02;79.27
68075;BME280;54864;52.002;5.468;2023-03-26T03:25:39;100356.94;;;10.93;79.31
68075;BME280;54864;52.002;5.468;2023-03-26T03:26:41;100357.19;;;10.89;79.58
68075;BME280;54864;52.002;5.468;2023-03-26T03:27:46;100353.53;;;10.91;79.89
68075;BME280;54864;52.002;5.468;2023-03-26T03:28:48;100352.06;;;10.86;80.17
68075;BME280;54864;52.002;5.468;2023-03-26T03:29:50;100352.19;;;11.00;79.74
68075;BME280;54864;52.002;5.468;2023-03-26T03:30:52;100349.63;;;10.98;79.55
68075;BME280;54864;52.002;5.468;2023-03-26T03:31:53;100357.28;;;11.03;79.64
68075;BME280;54864;52.002;5.468;2023-03-26T03:32:55;100352.34;;;10.97;79.64
68075;BME280;54864;52.002;5.468;2023-03-26T03:33:57;100352.19;;;11.00;79.63
68075;BME280;54864;52.002;5.468;2023-03-26T03:34:59;100356.50;;;11.01;79.44
68075;BME280;54864;52.002;5.468;2023-03-26T03:36:00;100352.94;;;11.02;79.66
68075;BME280;54864;52.002;5.468;2023-03-26T03:37:09;100345.66;;;11.07;79.20
68075;BME280;54864;52.002;5.468;2023-03-26T03:38:11;100351.63;;;11.10;79.08
68075;BME280;54864;52.002;5.468;2023-03-26T03:39:11;100349.72;;;10.97;79.12
68075;BME280;54864;52.002;5.468;2023-03-26T03:40:16;100351.88;;;11.06;79.15
68075;BME280;54864;52.002;5.468;2023-03-26T03:41:17;100349.91;;;11.09;79.11
68075;BME280;54864;52.002;5.468;2023-03-26T03:42:19;100341.53;;;11.01;78.81
68075;BME280;54864;52.002;5.468;2023-03-26T03:43:21;100351.16;;;11.02;78.94
68075;BME280;54864;52.002;5.468;2023-03-26T03:44:22;100353.66;;;11.05;78.88
68075;BME280;54864;52.002;5.468;2023-03-26T03:45:23;100352.56;;;11.09;78.65
68075;BME280;54864;52.002;5.468;2023-03-26T03:46:25;100354.56;;;11.04;79.01
68075;BME280;54864;52.002;5.468;2023-03-26T03:47:25;100348.97;;;11.10;78.80
68075;BME280;54864;52.002;5.468;2023-03-26T03:48:27;100349.75;;;11.13;78.38
68075;BME280;54864;52.002;5.468;2023-03-26T03:49:28;100342.44;;;11.18;78.39
68075;BME280;54864;52.002;5.468;2023-03-26T03:50:30;100343.69;;;11.10;78.40
68075;BME280;54864;52.002;5.468;2023-03-26T03:51:31;100346.00;;;11.17;78.63
68075;BME280;54864;52.002;5.468;2023-03-26T03:52:33;100338.69;;;11.22;78.10
68075;BME280;54864;52.002;5.468;2023-03-26T03:53:33;100340.63;;;11.18;78.05
68075;BME280;54864;52.002;5.468;2023-03-26T03:54:36;100332.72;;;11.18;78.05
68075;BME280;54864;52.002;5.468;2023-03-26T03:55:37;100336.22;;;11.19;77.99
68075;BME280;54864;52.002;5.468;2023-03-26T03:56:41;100333.41;;;11.22;77.89
68075;BME280;54864;52.002;5.468;2023-03-26T03:57:44;100332.72;;;11.18;77.95
68075;BME280;54864;52.002;5.468;2023-03-26T03:58:48;100321.81;;;11.24;78.00
68075;BME280;54864;52.002;5.468;2023-03-26T03:59:49;100324.22;;;11.29;77.74
68075;BME280;54864;52.002;5.468;2023-03-26T04:00:51;100325.81;;;11.31;77.33
68075;BME280;54864;52.002;5.468;2023-03-26T04:01:52;100320.53;;;11.31;77.65
68075;BME280;54864;52.002;5.468;2023-03-26T04:02:53;100319.59;;;11.32;77.63
68075;BME280;54864;52.002;5.468;2023-03-26T04:03:55;100320.28;;;11.36;77.15
68075;BME280;54864;52.002;5.468;2023-03-26T04:04:57;100322.91;;;11.36;77.35
68075;BME280;54864;52.002;5.468;2023-03-26T04:05:58;100325.56;;;11.36;77.37
68075;BME280;54864;52.002;5.468;2023-03-26T04:06:59;100319.25;;;11.38;77.31
68075;BME280;54864;52.002;5.468;2023-03-26T04:08:00;100314.06;;;11.37;77.38
68075;BME280;54864;52.002;5.468;2023-03-26T04:09:02;100314.84;;;11.39;77.16
68075;BME280;54864;52.002;5.468;2023-03-26T04:10:04;100325.38;;;11.39;77.09
68075;BME280;54864;52.002;5.468;2023-03-26T04:11:06;100316.72;;;11.37;77.18
68075;BME280;54864;52.002;5.468;2023-03-26T04:12:07;100317.72;;;11.34;77.50
68075;BME280;54864;52.002;5.468;2023-03-26T04:13:09;100309.81;;;11.34;77.41
68075;BME280;54864;52.002;5.468;2023-03-26T04:14:11;100311.59;;;11.34;77.27
68075;BME280;54864;52.002;5.468;2023-03-26T04:15:13;100307.59;;;11.27;77.45
68075;BME280;54864;52.002;5.468;2023-03-26T04:16:16;100310.16;;;11.28;77.53
68075;BME280;54864;52.002;5.468;2023-03-26T04:17:18;100311.69;;;11.32;77.48
68075;BME280;54864;52.002;5.468;2023-03-26T04:18:21;100305.81;;;11.27;77.88
68075;BME280;54864;52.002;5.468;2023-03-26T04:19:23;100306.94;;;11.23;77.97
68075;BME280;54864;52.002;5.468;2023-03-26T04:20:24;100311.28;;;11.24;77.96
68075;BME280;54864;52.002;5.468;2023-03-26T04:21:25;100301.31;;;11.14;77.96
68075;BME280;54864;52.002;5.468;2023-03-26T04:22:29;100304.56;;;11.19;77.91
68075;BME280;54864;52.002;5.468;2023-03-26T04:23:34;100306.94;;;11.23;77.98
68075;BME280;54864;52.002;5.468;2023-03-26T04:24:35;100295.53;;;11.23;77.78
68075;BME280;54864;52.002;5.468;2023-03-26T04:25:37;100291.00;;;11.25;77.71
68075;BME280;54864;52.002;5.468;2023-03-26T04:26:38;100293.50;;;11.12;77.61
68075;BME280;54864;52.002;5.468;2023-03-26T04:27:40;100294.84;;;11.19;77.41
68075;BME280;54864;52.002;5.468;2023-03-26T04:28:44;100287.59;;;11.23;77.13
68075;BME280;54864;52.002;5.468;2023-03-26T04:29:49;100287.69;;;11.21;77.08
68075;BME280;54864;52.002;5.468;2023-03-26T04:30:50;100284.13;;;11.22;77.36
68075;BME280;54864;52.002;5.468;2023-03-26T04:31:54;100277.81;;;11.25;77.26
68075;BME280;54864;52.002;5.468;2023-03-26T04:32:58;100280.53;;;11.23;77.27
68075;BME280;54864;52.002;5.468;2023-03-26T04:34:06;100274.16;;;11.27;77.43
68075;BME280;54864;52.002;5.468;2023-03-26T04:35:10;100275.09;;;11.26;76.99
68075;BME280;54864;52.002;5.468;2023-03-26T04:36:15;100275.09;;;11.26;76.98
68075;BME280;54864;52.002;5.468;2023-03-26T04:37:26;100284.97;;;11.23;77.26
68075;BME280;54864;52.002;5.468;2023-03-26T04:38:39;100272.53;;;11.25;77.34
68075;BME280;54864;52.002;5.468;2023-03-26T04:39:40;100271.59;;;11.26;77.09
68075;BME280;54864;52.002;5.468;2023-03-26T04:40:44;100268.28;;;11.22;77.28
68075;BME280;54864;52.002;5.468;2023-03-26T04:41:46;100263.88;;;11.23;77.56
68075;BME280;54864;52.002;5.468;2023-03-26T04:42:48;100268.13;;;11.25;77.26
68075;BME280;54864;52.002;5.468;2023-03-26T04:43:49;100266.25;;;11.27;77.13
68075;BME280;54864;52.002;5.468;2023-03-26T04:44:52;100267.94;;;11.28;77.27
68075;BME280;54864;52.002;5.468;2023-03-26T04:45:53;100264.53;;;11.26;77.50
68075;BME280;54864;52.002;5.468;2023-03-26T04:46:55;100262.84;;;11.25;77.41
68075;BME280;54864;52.002;5.468;2023-03-26T04:47:56;100262.75;;;11.27;77.33
68075;BME280;54864;52.002;5.468;2023-03-26T04:48:58;100255.69;;;11.27;77.21
68075;BME280;54864;52.002;5.468;2023-03-26T04:49:59;100260.28;;;11.24;77.28
68075;BME280;54864;52.002;5.468;2023-03-26T04:51:01;100255.94;;;11.23;77.73
68075;BME280;54864;52.002;5.468;2023-03-26T04:52:02;100252.47;;;11.22;77.70
68075;BME280;54864;52.002;5.468;2023-03-26T04:53:03;100250.84;;;11.20;77.66
68075;BME280;54864;52.002;5.468;2023-03-26T04:54:04;100248.47;;;11.15;77.74
68075;BME280;54864;52.002;5.468;2023-03-26T04:55:21;100252.72;;;11.18;77.56
68075;BME280;54864;52.002;5.468;2023-03-26T04:56:33;100256.28;;;11.17;77.41
68075;BME280;54864;52.002;5.468;2023-03-26T04:57:38;100254.28;;;11.06;77.45
68075;BME280;54864;52.002;5.468;2023-03-26T04:58:42;100246.66;;;11.00;77.90
68075;BME280;54864;52.002;5.468;2023-03-26T04:59:44;100251.69;;;10.89;78.28
68075;BME280;54864;52.002;5.468;2023-03-26T05:00:46;100250.94;;;10.71;78.90
68075;BME280;54864;52.002;5.468;2023-03-26T05:01:48;100247.03;;;10.78;79.10
68075;BME280;54864;52.002;5.468;2023-03-26T05:02:49;100244.81;;;10.86;78.94
68075;BME280;54864;52.002;5.468;2023-03-26T05:03:53;100243.97;;;10.86;78.76
68075;BME280;54864;52.002;5.468;2023-03-26T05:04:54;100236.81;;;10.88;78.67
68075;BME280;54864;52.002;5.468;2023-03-26T05:05:56;100237.75;;;10.87;78.48
68075;BME280;54864;52.002;5.468;2023-03-26T05:06:57;100240.97;;;10.76;79.00
68075;BME280;54864;52.002;5.468;2023-03-26T05:08:00;100239.63;;;10.85;78.85
68075;BME280;54864;52.002;5.468;2023-03-26T05:09:00;100236.03;;;10.86;78.34
68075;BME280;54864;52.002;5.468;2023-03-26T05:10:03;100235.19;;;10.85;78.62
68075;BME280;54864;52.002;5.468;2023-03-26T05:11:05;100234.50;;;10.82;78.97
68075;BME280;54864;52.002;5.468;2023-03-26T05:12:10;100242.25;;;10.85;78.81
68075;BME280;54864;52.002;5.468;2023-03-26T05:13:11;100230.78;;;10.86;78.53
68075;BME280;54864;52.002;5.468;2023-03-26T05:14:13;100232.47;;;10.87;78.47
68075;BME280;54864;52.002;5.468;2023-03-26T05:15:16;100231.53;;;10.88;78.29
68075;BME280;54864;52.002;5.468;2023-03-26T05:16:19;100234.16;;;10.88;78.32
68075;BME280;54864;52.002;5.468;2023-03-26T05:17:22;100230.69;;;10.87;78.58
68075;BME280;54864;52.002;5.468;2023-03-26T05:18:25;100223.88;;;10.83;78.45
68075;BME280;54864;52.002;5.468;2023-03-26T05:19:25;100227.63;;;10.79;78.61
68075;BME280;54864;52.002;5.468;2023-03-26T05:20:28;100225.16;;;10.76;78.74
68075;BME280;54864;52.002;5.468;2023-03-26T05:21:30;100215.72;;;10.72;78.96
68075;BME280;54864;52.002;5.468;2023-03-26T05:22:31;100222.09;;;10.68;79.21
68075;BME280;54864;52.002;5.468;2023-03-26T05:23:33;100223.53;;;10.73;79.18
68075;BME280;54864;52.002;5.468;2023-03-26T05:24:33;100211.56;;;10.68;78.76
68075;BME280;54864;52.002;5.468;2023-03-26T05:25:35;100214.09;;;10.69;78.98
68075;BME280;54864;52.002;5.468;2023-03-26T05:26:36;100214.97;;;10.70;78.30
68075;BME280;54864;52.002;5.468;2023-03-26T05:27:38;100214.88;;;10.71;78.62
68075;BME280;54864;52.002;5.468;2023-03-26T05:28:39;100211.38;;;10.71;78.71
68075;BME280;54864;52.002;5.468;2023-03-26T05:29:40;100213.84;;;10.74;78.69
68075;BME280;54864;52.002;5.468;2023-03-26T05:30:41;100205.25;;;10.70;78.61